Time;durP1;ratioP1;P1;durP2;ratioP2;P2;SDS_P1;SDS_P2;PMS_P1;PMS_P2;Temp;Humidity;BMP_temperature;BMP_pressure;BME280_temperature;BME280_humidity;BME280_pressure;Samples;Min_cycle;Max_cycle;Signal;HPM_P1;HPM_P2
2022/04/06 00:00:48;;;;;;;17.23;10.47;;;9.90;99.90;;;;;;5046532;28;20428;-37
2022/04/06 00:03:14;;;;;;;24.30;11.10;;;9.90;99.90;;;;;;5061678;28;20192;-33
2022/04/06 00:05:40;;;;;;;23.53;10.80;;;9.80;99.90;;;;;;5071509;28;20189;-41
2022/04/06 00:08:06;;;;;;;22.33;11.50;;;9.90;99.90;;;;;;5048386;28;20858;-40
2022/04/06 00:10:31;;;;;;;24.63;13.87;;;9.90;99.90;;;;;;5052081;28;20515;-34
2022/04/06 00:13:00;;;;;;;17.80;9.60;;;9.90;99.90;;;;;;5048176;28;20420;-36
2022/04/06 00:15:26;;;;;;;15.53;9.43;;;10.00;99.90;;;;;;5047448;28;20592;-37
2022/04/06 00:17:53;;;;;;;15.43;9.70;;;9.80;99.90;;;;;;5073156;28;20961;-37
2022/04/06 00:20:18;;;;;;;16.57;9.53;;;9.70;99.90;;;;;;5058765;28;20425;-35
2022/04/06 00:22:44;;;;;;;17.20;9.43;;;9.70;99.90;;;;;;5049330;28;20446;-34
2022/04/06 00:25:10;;;;;;;16.57;9.10;;;9.70;99.90;;;;;;5047745;28;20185;-36
2022/04/06 00:27:36;;;;;;;13.20;8.40;;;9.60;99.90;;;;;;5047858;28;20428;-40
2022/04/06 00:30:02;;;;;;;13.40;8.77;;;9.80;99.90;;;;;;5046907;28;20194;-41
2022/04/06 00:32:28;;;;;;;16.23;10.10;;;9.70;99.90;;;;;;5059274;28;20193;-39
2022/04/06 00:37:39;;;;;;;13.93;8.80;;;9.80;99.90;;;;;;5048024;28;20707;-38
2022/04/06 00:40:08;;;;;;;14.17;9.97;;;9.80;99.90;;;;;;5056771;28;20962;-37
2022/04/06 00:42:34;;;;;;;14.80;9.17;;;9.70;99.90;;;;;;5047694;28;20432;-35
2022/04/06 00:45:00;;;;;;;18.20;9.80;;;9.70;99.90;;;;;;5047622;28;20429;-37
2022/04/06 00:47:25;;;;;;;16.47;9.20;;;9.80;99.90;;;;;;5064958;28;20930;-38
2022/04/06 00:49:51;;;;;;;14.10;9.07;;;9.80;99.90;;;;;;5071925;28;20432;-41
2022/04/06 00:52:19;;;;;;;16.10;9.57;;;9.70;99.90;;;;;;5047955;28;20190;-39
2022/04/06 00:54:46;;;;;;;13.77;8.23;;;9.70;99.90;;;;;;5053723;28;20295;-38
2022/04/06 00:57:13;;;;;;;14.53;8.27;;;9.80;99.90;;;;;;5047354;28;20520;-36
2022/04/06 00:59:41;;;;;;;13.50;8.90;;;9.60;99.90;;;;;;5046987;28;20424;-40
2022/04/06 01:02:07;;;;;;;14.60;8.70;;;9.70;99.90;;;;;;5059932;28;20434;-34
2022/04/06 01:04:33;;;;;;;16.53;8.57;;;9.70;99.90;;;;;;5065769;28;20482;-36
2022/04/06 01:06:59;;;;;;;15.20;7.33;;;9.80;99.90;;;;;;5057792;28;20900;-34
2022/04/06 01:09:27;;;;;;;14.30;8.20;;;9.50;99.90;;;;;;5049992;28;20427;-38
2022/04/06 01:11:53;;;;;;;13.47;9.23;;;9.50;99.90;;;;;;5046686;28;20435;-36
2022/04/06 01:14:19;;;;;;;15.73;8.60;;;9.60;99.90;;;;;;5047007;28;20897;-35
2022/04/06 01:17:02;;;;;;;13.27;8.60;;;9.50;99.90;;;;;;5058554;28;20622;-37
2022/04/06 01:19:47;;;;;;;17.67;8.20;;;9.60;99.90;;;;;;5052588;28;20434;-35
2022/04/06 01:22:20;;;;;;;14.40;8.23;;;9.60;99.90;;;;;;5059081;28;20424;-36
2022/04/06 01:24:47;;;;;;;13.27;7.70;;;9.50;99.90;;;;;;5054763;28;20802;-36
2022/04/06 01:27:15;;;;;;;20.73;8.50;;;9.50;99.90;;;;;;5050675;28;20420;-40
2022/04/06 01:29:41;;;;;;;11.83;7.53;;;9.70;99.90;;;;;;5046646;28;20947;-35
2022/04/06 01:32:09;;;;;;;12.80;7.10;;;9.60;99.90;;;;;;5047375;28;20436;-39
2022/04/06 01:34:35;;;;;;;12.93;7.50;;;9.60;99.90;;;;;;5066743;28;20454;-37
2022/04/06 01:37:06;;;;;;;11.60;7.03;;;9.60;99.90;;;;;;5047888;28;20443;-40
2022/04/06 01:39:33;;;;;;;13.00;6.97;;;9.60;99.90;;;;;;5051604;28;20469;-40
2022/04/06 01:41:58;;;;;;;14.63;8.33;;;9.60;99.90;;;;;;5048764;28;20428;-38
2022/04/06 01:44:24;;;;;;;13.53;8.10;;;9.80;99.90;;;;;;5047510;28;20818;-37
2022/04/06 01:46:50;;;;;;;11.83;7.30;;;9.60;99.90;;;;;;5052606;28;20620;-37
2022/04/06 01:52:12;;;;;;;11.30;7.40;;;9.70;99.90;;;;;;5050855;28;20232;-36
2022/04/06 01:54:45;;;;;;;11.93;8.80;;;9.60;99.90;;;;;;5053680;28;20458;-39
2022/04/06 01:57:12;;;;;;;16.37;7.77;;;9.50;99.90;;;;;;5051211;28;20444;-34
2022/04/06 01:59:38;;;;;;;17.60;8.30;;;9.60;99.90;;;;;;5049833;28;20436;-40
2022/04/06 02:02:04;;;;;;;12.47;6.97;;;9.50;99.90;;;;;;5056644;28;20430;-38
2022/04/06 02:04:30;;;;;;;9.50;7.20;;;9.70;99.90;;;;;;5068363;28;20211;-39
2022/04/06 02:06:56;;;;;;;11.40;7.20;;;9.50;99.90;;;;;;5057883;28;20458;-37
2022/04/06 02:09:22;;;;;;;9.73;6.93;;;9.60;99.90;;;;;;5051846;28;20459;-34
2022/04/06 02:11:48;;;;;;;14.83;7.93;;;9.40;99.90;;;;;;5060584;28;20450;-39
2022/04/06 02:14:14;;;;;;;18.77;7.57;;;9.50;99.90;;;;;;5050092;28;20206;-38
2022/04/06 02:16:41;;;;;;;9.90;7.07;;;9.50;99.90;;;;;;5061021;28;20435;-34
2022/04/06 02:19:06;;;;;;;15.20;7.67;;;9.60;99.90;;;;;;5065387;28;20519;-38
2022/04/06 02:21:33;;;;;;;9.97;6.67;;;9.60;99.90;;;;;;5060022;28;20860;-36
2022/04/06 02:23:59;;;;;;;12.73;7.27;;;9.50;99.90;;;;;;5050981;28;20185;-38
2022/04/06 02:26:27;;;;;;;11.60;6.53;;;9.60;99.90;;;;;;5057448;28;20428;-37
2022/04/06 02:28:53;;;;;;;11.57;7.40;;;9.40;99.90;;;;;;5049919;28;20452;-38
2022/04/06 02:31:19;;;;;;;12.20;6.90;;;9.40;99.90;;;;;;5049101;28;20493;-35
2022/04/06 02:33:45;;;;;;;10.03;6.83;;;9.60;99.90;;;;;;5071981;28;20463;-40
2022/04/06 02:36:10;;;;;;;10.23;6.50;;;9.40;99.90;;;;;;5065486;28;20641;-39
2022/04/06 02:38:38;;;;;;;10.00;6.23;;;9.50;99.90;;;;;;5050056;28;20186;-38
2022/04/06 02:41:11;;;;;;;12.77;7.40;;;9.60;99.90;;;;;;5051441;28;20235;-39
2022/04/06 02:43:36;;;;;;;9.40;6.63;;;9.70;99.90;;;;;;5049889;28;20428;-36
2022/04/06 02:46:03;;;;;;;12.30;5.80;;;9.60;99.90;;;;;;5049723;28;20489;-36
2022/04/06 02:48:29;;;;;;;8.40;6.03;;;9.50;99.90;;;;;;5062580;28;20829;-34
2022/04/06 02:50:54;;;;;;;7.10;5.97;;;9.50;99.90;;;;;;5065304;28;20423;-36
2022/04/06 02:53:20;;;;;;;11.03;5.90;;;9.50;99.90;;;;;;5049991;28;20939;-41
2022/04/06 02:55:46;;;;;;;9.80;4.90;;;9.50;99.90;;;;;;5059008;28;20366;-40
2022/04/06 02:58:12;;;;;;;9.83;5.27;;;9.50;99.90;;;;;;5051426;28;20421;-37
2022/04/06 03:00:38;;;;;;;7.40;5.23;;;9.50;99.90;;;;;;5048909;28;20689;-39
2022/04/06 03:03:03;;;;;;;10.00;5.97;;;9.60;99.90;;;;;;5061852;28;20388;-37
2022/04/06 03:05:30;;;;;;;8.63;5.17;;;9.60;99.90;;;;;;5077304;28;20299;-36
2022/04/06 03:07:56;;;;;;;13.90;5.93;;;9.60;99.90;;;;;;5049306;28;20638;-38
2022/04/06 03:10:21;;;;;;;9.20;5.57;;;9.40;99.90;;;;;;5054594;28;20216;-41
2022/04/06 03:12:47;;;;;;;9.53;5.80;;;9.40;99.90;;;;;;5051575;28;20200;-38
2022/04/06 03:15:14;;;;;;;9.57;5.20;;;9.30;99.90;;;;;;5049282;28;20300;-38
2022/04/06 03:17:41;;;;;;;8.30;5.50;;;9.40;99.90;;;;;;5065730;28;20177;-38
2022/04/06 03:20:08;;;;;;;7.23;4.80;;;9.40;99.90;;;;;;5073037;28;20604;-38
2022/04/06 03:22:34;;;;;;;8.47;5.97;;;9.40;99.90;;;;;;5062516;28;20486;-38
2022/04/06 03:25:00;;;;;;;8.77;5.60;;;9.40;99.90;;;;;;5049915;28;20830;-37
2022/04/06 03:27:25;;;;;;;8.23;4.90;;;9.40;99.90;;;;;;5049732;28;20197;-38
2022/04/06 03:29:51;;;;;;;11.73;6.50;;;9.40;99.90;;;;;;5048486;28;20431;-40
2022/04/06 03:32:17;;;;;;;9.80;5.43;;;9.40;99.90;;;;;;5052540;28;20197;-38
2022/04/06 03:34:42;;;;;;;7.70;4.63;;;9.30;99.90;;;;;;5081467;28;20303;-34
2022/04/06 03:37:08;;;;;;;11.20;6.93;;;9.40;99.90;;;;;;5050034;28;20652;-37
2022/04/06 03:39:34;;;;;;;12.87;5.63;;;9.40;99.90;;;;;;5048589;28;20705;-37
2022/04/06 03:42:00;;;;;;;6.80;5.00;;;9.40;99.90;;;;;;5060629;28;20551;-37
2022/04/06 03:44:25;;;;;;;9.20;4.97;;;9.30;99.90;;;;;;5047589;28;20649;-37
2022/04/06 03:46:52;;;;;;;11.17;5.60;;;9.50;99.90;;;;;;5048267;28;20225;-38
2022/04/06 03:49:18;;;;;;;10.43;5.20;;;9.50;99.90;;;;;;5050143;28;20527;-36
2022/04/06 03:51:44;;;;;;;7.23;5.47;;;9.40;99.90;;;;;;5066391;28;20518;-39
2022/04/06 03:54:09;;;;;;;6.83;4.87;;;9.70;99.90;;;;;;5048029;28;20319;-38
2022/04/06 03:56:35;;;;;;;9.70;5.70;;;9.50;99.90;;;;;;5056420;28;20394;-40
2022/04/06 03:59:01;;;;;;;9.23;6.20;;;9.40;99.90;;;;;;5048354;28;20186;-39
2022/04/06 04:01:30;;;;;;;11.00;6.33;;;9.50;99.90;;;;;;5047832;28;20262;-38
2022/04/06 04:03:56;;;;;;;9.73;5.80;;;9.40;99.90;;;;;;5058425;28;20189;-37
2022/04/06 04:06:21;;;;;;;9.37;5.33;;;9.30;99.90;;;;;;5066165;28;20811;-38
2022/04/06 04:08:47;;;;;;;8.80;5.73;;;9.40;99.90;;;;;;5046664;28;20570;-40
2022/04/06 04:11:13;;;;;;;9.23;5.50;;;9.40;99.90;;;;;;5051271;28;20201;-38
2022/04/06 04:13:38;;;;;;;12.80;6.40;;;9.30;99.90;;;;;;5047948;28;20218;-37
2022/04/06 04:16:05;;;;;;;9.47;5.47;;;9.40;99.90;;;;;;5051581;28;20197;-37
2022/04/06 04:18:31;;;;;;;12.23;6.20;;;9.20;99.90;;;;;;5060389;28;20446;-38
2022/04/06 04:23:41;;;;;;;10.70;6.07;;;9.40;99.90;;;;;;5048593;28;20217;-39
2022/04/06 04:26:07;;;;;;;10.57;6.00;;;9.30;99.90;;;;;;5048559;28;20468;-32
2022/04/06 04:28:33;;;;;;;8.90;5.67;;;9.30;99.90;;;;;;5048018;28;20186;-38
2022/04/06 04:30:58;;;;;;;10.07;5.10;;;9.30;99.90;;;;;;5047258;28;20192;-35
2022/04/06 04:33:24;;;;;;;6.37;5.63;;;9.40;99.90;;;;;;5053451;28;20249;-38
2022/04/06 04:35:50;;;;;;;9.03;5.67;;;9.30;99.90;;;;;;5069238;28;20230;-38
2022/04/06 04:38:15;;;;;;;7.47;5.80;;;9.20;99.90;;;;;;5050920;28;20192;-38
2022/04/06 04:40:41;;;;;;;11.80;5.33;;;9.50;99.90;;;;;;5050694;28;20189;-38
2022/04/06 04:43:07;;;;;;;8.23;5.97;;;9.40;99.90;;;;;;5053640;28;20276;-37
2022/04/06 04:45:32;;;;;;;8.10;5.20;;;9.50;99.90;;;;;;5047486;28;20710;-37
2022/04/06 04:47:58;;;;;;;12.27;5.87;;;9.50;99.90;;;;;;5054899;28;20428;-37
2022/04/06 04:50:24;;;;;;;11.90;7.10;;;9.50;99.90;;;;;;5059827;28;20186;-38
2022/04/06 04:52:49;;;;;;;7.90;5.50;;;9.20;99.90;;;;;;5058268;28;20993;-35
2022/04/06 04:55:15;;;;;;;8.97;5.10;;;9.30;99.90;;;;;;5047224;28;20561;-39
2022/04/06 04:57:41;;;;;;;9.83;4.93;;;9.30;99.90;;;;;;5060739;28;20252;-39
2022/04/06 05:00:09;;;;;;;11.03;5.60;;;9.20;99.90;;;;;;5066120;28;20180;-38
2022/04/06 05:02:36;;;;;;;14.83;5.17;;;9.30;99.90;;;;;;5065576;28;20216;-37
2022/04/06 05:05:04;;;;;;;10.27;4.93;;;9.20;99.90;;;;;;5065988;28;20430;-37
2022/04/06 05:07:30;;;;;;;6.10;4.50;;;9.20;99.90;;;;;;5068269;28;20449;-40
2022/04/06 05:09:55;;;;;;;6.20;5.37;;;9.20;99.90;;;;;;5071308;28;20511;-37
2022/04/06 05:12:21;;;;;;;8.20;5.10;;;9.10;99.90;;;;;;5048537;28;20286;-39
2022/04/06 05:14:47;;;;;;;8.20;4.80;;;9.20;99.90;;;;;;5047202;28;20657;-37
2022/04/06 05:17:12;;;;;;;7.20;5.67;;;9.20;99.90;;;;;;5059166;28;20537;-38
2022/04/06 05:19:38;;;;;;;6.90;4.47;;;9.20;99.90;;;;;;5060347;28;20184;-38
2022/04/06 05:22:04;;;;;;;8.77;5.40;;;9.20;99.90;;;;;;5080930;28;20200;-34
2022/04/06 05:24:30;;;;;;;10.60;4.63;;;9.20;99.90;;;;;;5053863;28;20806;-39
2022/04/06 05:26:55;;;;;;;7.63;4.87;;;9.20;99.90;;;;;;5064172;28;20517;-39
2022/04/06 05:29:21;;;;;;;8.83;4.50;;;9.30;99.90;;;;;;5052837;28;20194;-39
2022/04/06 05:31:47;;;;;;;8.73;5.40;;;9.20;99.90;;;;;;5052982;28;20732;-40
2022/04/06 05:34:12;;;;;;;6.80;3.93;;;9.20;99.90;;;;;;5069243;28;20360;-35
2022/04/06 05:36:38;;;;;;;5.67;4.20;;;9.30;99.90;;;;;;5078566;28;20562;-39
2022/04/06 05:39:04;;;;;;;5.17;3.60;;;9.40;99.90;;;;;;5067185;28;20551;-41
2022/04/06 05:41:30;;;;;;;4.83;3.47;;;9.30;99.90;;;;;;5060325;28;20185;-38
2022/04/06 05:43:55;;;;;;;10.70;3.73;;;9.40;99.90;;;;;;5053574;28;20431;-37
2022/04/06 05:46:21;;;;;;;7.07;3.83;;;9.30;99.90;;;;;;5054294;28;20224;-39
2022/04/06 05:48:47;;;;;;;5.50;3.50;;;9.40;99.90;;;;;;5069140;28;20200;-39
2022/04/06 05:51:13;;;;;;;6.20;4.13;;;9.30;99.90;;;;;;5075923;28;20192;-38
2022/04/06 05:53:39;;;;;;;8.70;3.90;;;9.30;99.90;;;;;;5051992;28;20200;-36
2022/04/06 05:56:05;;;;;;;8.17;3.97;;;9.40;99.90;;;;;;5054813;28;20443;-39
2022/04/06 05:58:31;;;;;;;5.27;4.07;;;9.40;99.90;;;;;;5063160;28;20193;-37
2022/04/06 06:00:56;;;;;;;11.73;5.10;;;9.20;99.90;;;;;;5086227;28;20836;-37
2022/04/06 06:03:22;;;;;;;6.70;4.00;;;9.30;99.90;;;;;;5058674;28;20284;-37
2022/04/06 06:05:47;;;;;;;5.47;3.83;;;9.30;99.90;;;;;;5067089;28;20226;-38
2022/04/06 06:08:13;;;;;;;8.57;4.10;;;9.40;99.90;;;;;;5053567;28;20193;-34
2022/04/06 06:10:39;;;;;;;6.53;3.80;;;9.30;99.90;;;;;;5081690;28;20189;-39
2022/04/06 06:13:04;;;;;;;6.90;4.40;;;9.50;99.90;;;;;;5066031;28;20255;-38
2022/04/06 06:15:30;;;;;;;7.27;4.90;;;9.30;99.90;;;;;;5074447;28;20219;-38
2022/04/06 06:17:55;;;;;;;6.17;5.37;;;9.40;99.90;;;;;;5064486;28;20217;-37
2022/04/06 06:20:21;;;;;;;6.77;4.97;;;9.50;99.90;;;;;;5057052;28;20813;-33
2022/04/06 06:22:47;;;;;;;8.73;3.90;;;9.30;99.90;;;;;;5073324;28;20187;-34
2022/04/06 06:25:12;;;;;;;9.33;5.00;;;9.40;99.90;;;;;;5053140;28;20217;-34
2022/04/06 06:27:42;;;;;;;8.70;4.50;;;9.40;99.90;;;;;;5060060;28;20194;-37
2022/04/06 06:30:11;;;;;;;6.43;5.20;;;9.40;99.90;;;;;;5052304;28;20193;-37
2022/04/06 06:32:36;;;;;;;11.40;5.40;;;9.40;99.90;;;;;;5048478;28;20806;-39
2022/04/06 06:35:02;;;;;;;9.53;4.73;;;9.50;99.90;;;;;;5056249;28;20461;-33
2022/04/06 06:37:28;;;;;;;7.17;4.40;;;9.40;99.90;;;;;;5067462;28;20652;-36
2022/04/06 06:39:54;;;;;;;6.37;4.17;;;9.40;99.90;;;;;;5049448;28;20198;-40
2022/04/06 06:42:20;;;;;;;11.33;5.67;;;9.60;99.90;;;;;;5052348;28;20280;-36
2022/04/06 06:44:46;;;;;;;8.10;4.43;;;9.50;99.90;;;;;;5049567;28;20786;-38
2022/04/06 06:47:12;;;;;;;7.93;4.33;;;9.50;99.90;;;;;;5048567;28;20428;-39
2022/04/06 06:49:40;;;;;;;8.77;4.97;;;9.40;99.90;;;;;;5060863;28;20235;-36
2022/04/06 06:52:06;;;;;;;7.27;3.80;;;9.40;99.90;;;;;;5057559;28;20192;-37
2022/04/06 06:54:31;;;;;;;12.43;4.60;;;9.40;99.90;;;;;;5059069;28;20459;-38
2022/04/06 06:56:58;;;;;;;9.67;4.20;;;9.50;99.90;;;;;;5058454;28;20635;-37
2022/04/06 06:59:23;;;;;;;8.03;3.90;;;9.60;99.90;;;;;;5059266;28;20230;-39
2022/04/06 07:01:49;;;;;;;8.90;3.87;;;9.40;99.90;;;;;;5059372;28;20905;-37
2022/04/06 07:04:15;;;;;;;7.27;4.17;;;9.50;99.90;;;;;;5064483;28;20716;-36
2022/04/06 07:06:40;;;;;;;6.93;4.37;;;9.40;99.90;;;;;;5073817;28;20649;-38
2022/04/06 07:09:06;;;;;;;7.23;4.07;;;9.50;99.90;;;;;;5055135;28;20575;-36
2022/04/06 07:11:32;;;;;;;7.67;4.20;;;9.50;99.90;;;;;;5050718;28;20189;-40
2022/04/06 07:13:57;;;;;;;9.50;6.00;;;9.50;99.90;;;;;;5055476;28;20785;-38
2022/04/06 07:16:23;;;;;;;9.57;3.93;;;9.50;99.90;;;;;;5057021;28;20185;-35
2022/04/06 07:18:49;;;;;;;8.60;4.50;;;9.50;99.90;;;;;;5063577;28;20180;-39
2022/04/06 07:21:14;;;;;;;5.27;4.20;;;9.70;99.90;;;;;;5079047;28;20185;-39
2022/04/06 07:23:40;;;;;;;7.80;3.80;;;9.50;99.90;;;;;;5068990;28;20216;-37
2022/04/06 07:26:06;;;;;;;5.20;3.70;;;9.60;99.90;;;;;;5049576;28;20237;-39
2022/04/06 07:28:32;;;;;;;4.33;3.60;;;9.60;99.90;;;;;;5052360;28;20420;-36
2022/04/06 07:30:59;;;;;;;7.67;4.00;;;9.40;99.90;;;;;;5048816;28;20198;-37
2022/04/06 07:33:25;;;;;;;6.97;3.93;;;9.50;99.90;;;;;;5048425;28;20432;-37
2022/04/06 07:35:51;;;;;;;7.33;4.50;;;9.50;99.90;;;;;;5074532;28;20999;-40
2022/04/06 07:38:18;;;;;;;5.70;3.50;;;9.40;99.90;;;;;;5058562;28;20182;-37
2022/04/06 07:40:44;;;;;;;6.30;3.83;;;9.50;99.90;;;;;;5048379;28;20424;-37
2022/04/06 07:43:10;;;;;;;5.30;4.30;;;9.40;99.90;;;;;;5060872;28;20801;-39
2022/04/06 07:45:37;;;;;;;8.77;4.37;;;9.20;99.90;;;;;;5049008;28;20617;-37
2022/04/06 07:48:04;;;;;;;7.70;3.77;;;9.40;99.90;;;;;;5048396;28;20428;-40
2022/04/06 07:50:30;;;;;;;4.07;3.67;;;9.20;99.90;;;;;;5055079;28;20788;-34
2022/04/06 07:52:56;;;;;;;9.80;4.30;;;9.40;99.90;;;;;;5067955;28;20458;-37
2022/04/06 07:55:22;;;;;;;6.60;4.50;;;9.30;99.90;;;;;;5048415;28;20459;-38
2022/04/06 07:57:47;;;;;;;6.80;3.67;;;9.30;99.90;;;;;;5057069;28;20793;-38
2022/04/06 08:00:18;;;;;;;14.33;4.40;;;9.40;99.90;;;;;;5047986;28;20591;-36
2022/04/06 08:02:48;;;;;;;6.10;3.93;;;9.50;99.90;;;;;;5048518;28;20684;-38
2022/04/06 08:05:14;;;;;;;4.30;3.60;;;9.50;99.90;;;;;;5064073;28;20434;-39
2022/04/06 08:07:43;;;;;;;5.70;3.83;;;9.70;99.90;;;;;;5068804;28;20431;-36
2022/04/06 08:10:11;;;;;;;4.77;3.50;;;9.50;99.90;;;;;;5057170;28;20432;-39
2022/04/06 08:12:36;;;;;;;7.83;3.93;;;9.50;99.90;;;;;;5052699;28;20424;-37
2022/04/06 08:15:03;;;;;;;7.10;4.20;;;9.50;99.90;;;;;;5047887;28;20826;-38
2022/04/06 08:17:36;;;;;;;6.27;3.80;;;9.60;99.90;;;;;;5064773;28;20188;-37
2022/04/06 08:20:04;;;;;;;4.50;3.20;;;9.50;99.90;;;;;;5064842;28;20426;-39
2022/04/06 08:22:29;;;;;;;8.23;5.10;;;9.60;99.90;;;;;;5075734;28;20520;-39
2022/04/06 08:24:55;;;;;;;5.20;3.73;;;9.70;99.90;;;;;;5056786;28;20570;-34
2022/04/06 08:27:21;;;;;;;4.57;3.67;;;9.60;99.90;;;;;;5049814;28;20427;-37
2022/04/06 08:29:46;;;;;;;6.30;4.07;;;9.60;99.90;;;;;;5047188;28;20197;-39
2022/04/06 08:32:14;;;;;;;4.70;3.97;;;9.70;99.90;;;;;;5047911;28;20194;-37
2022/04/06 08:34:39;;;;;;;4.17;3.77;;;9.50;99.90;;;;;;5052752;28;20676;-40
2022/04/06 08:37:05;;;;;;;5.20;4.43;;;9.60;99.90;;;;;;5070242;28;20444;-38
2022/04/06 08:39:31;;;;;;;4.80;4.30;;;9.50;99.90;;;;;;5047481;28;20232;-40
2022/04/06 08:41:57;;;;;;;7.30;3.47;;;9.80;99.90;;;;;;5048319;28;20623;-40
2022/04/06 08:44:24;;;;;;;4.70;3.73;;;9.60;99.90;;;;;;5057107;28;20193;-39
2022/04/06 08:46:52;;;;;;;4.90;4.03;;;9.70;99.90;;;;;;5047625;28;20432;-37
2022/04/06 08:49:20;;;;;;;5.63;3.47;;;9.80;99.90;;;;;;5046856;28;20451;-38
2022/04/06 08:51:48;;;;;;;7.10;4.20;;;9.60;99.90;;;;;;5064085;28;20431;-40
2022/04/06 08:54:14;;;;;;;7.07;3.20;;;9.60;99.90;;;;;;5060582;28;20459;-35
2022/04/06 08:56:39;;;;;;;5.17;3.73;;;9.70;99.90;;;;;;5047371;28;20570;-39
2022/04/06 08:59:06;;;;;;;8.90;4.20;;;9.70;99.90;;;;;;5053052;28;20186;-38
2022/04/06 09:01:33;;;;;;;3.93;3.40;;;9.80;99.90;;;;;;5046601;28;20259;-38
2022/04/06 09:04:00;;;;;;;5.10;3.20;;;9.70;99.90;;;;;;5044131;28;20443;-40
2022/04/06 09:06:29;;;;;;;7.50;3.90;;;9.90;99.90;;;;;;5054978;28;20507;-39
2022/04/06 09:08:55;;;;;;;6.10;3.23;;;9.90;99.90;;;;;;5054605;28;20432;-38
2022/04/06 09:11:21;;;;;;;3.80;3.13;;;9.60;99.90;;;;;;5046720;28;20456;-39
2022/04/06 09:13:56;;;;;;;4.50;2.80;;;9.60;99.90;;;;;;5048849;28;20432;-37
2022/04/06 09:16:27;;;;;;;5.53;2.77;;;9.70;99.90;;;;;;5047234;28;20768;-37
2022/04/06 09:18:53;;;;;;;7.60;2.87;;;9.80;99.90;;;;;;5047265;28;20664;-37
2022/04/06 09:21:19;;;;;;;5.57;3.53;;;9.90;99.90;;;;;;5061877;28;21035;-35
2022/04/06 09:23:49;;;;;;;4.10;2.97;;;9.90;99.90;;;;;;5063465;28;20259;-40
2022/04/06 09:26:19;;;;;;;7.07;2.83;;;10.00;99.90;;;;;;5047209;28;20442;-37
2022/04/06 09:28:47;;;;;;;3.00;2.60;;;10.00;99.90;;;;;;5057307;28;20424;-35
2022/04/06 09:31:17;;;;;;;3.20;2.40;;;10.10;99.90;;;;;;5046539;28;20427;-38
2022/04/06 09:33:55;;;;;;;4.43;2.53;;;10.20;99.90;;;;;;5046796;28;20416;-35
2022/04/06 09:36:21;;;;;;;3.40;1.93;;;10.20;99.90;;;;;;5063233;28;20862;-34
2022/04/06 09:38:49;;;;;;;4.00;2.60;;;10.10;99.90;;;;;;5061021;28;20516;-38
2022/04/06 09:41:15;;;;;;;2.90;2.03;;;10.20;99.90;;;;;;5046591;28;20221;-35
2022/04/06 09:43:44;;;;;;;3.70;2.53;;;10.20;99.90;;;;;;5053085;28;20805;-37
2022/04/06 09:49:18;;;;;;;3.17;2.13;;;10.30;99.90;;;;;;5055149;28;20937;-40
2022/04/06 09:51:50;;;;;;;4.67;2.00;;;10.40;99.90;;;;;;5065915;28;20431;-35
2022/04/06 09:54:17;;;;;;;3.33;2.00;;;10.30;99.90;;;;;;5060613;28;20488;-39
2022/04/06 09:56:44;;;;;;;2.70;2.00;;;10.30;99.90;;;;;;5046617;28;20451;-37
2022/04/06 09:59:11;;;;;;;4.53;2.20;;;10.40;99.90;;;;;;5049080;28;20428;-36
2022/04/06 10:01:40;;;;;;;5.13;2.07;;;10.20;99.90;;;;;;5046405;28;20530;-34
2022/04/06 10:04:12;;;;;;;2.50;1.63;;;10.10;99.90;;;;;;5045189;28;20428;-37
2022/04/06 10:06:40;;;;;;;5.80;2.10;;;10.30;99.90;;;;;;5062940;28;20785;-37
2022/04/06 10:09:09;;;;;;;3.73;2.43;;;10.10;99.90;;;;;;5063694;28;20507;-39
2022/04/06 10:11:36;;;;;;;6.53;2.20;;;10.10;99.90;;;;;;5056852;28;20866;-38
2022/04/06 10:14:08;;;;;;;2.27;1.83;;;10.20;99.90;;;;;;5068673;28;20490;-39
2022/04/06 10:16:38;;;;;;;2.93;1.97;;;10.40;99.90;;;;;;5050433;28;20981;-40
2022/04/06 10:19:06;;;;;;;3.10;2.10;;;10.40;99.90;;;;;;5050275;28;20474;-35
2022/04/06 10:22:02;;;;;;;3.03;1.80;;;10.10;99.90;;;;;;5067133;28;20536;-40
2022/04/06 10:24:55;;;;;;;3.30;2.00;;;10.30;99.90;;;;;;5066097;28;20428;-35
2022/04/06 10:27:39;;;;;;;4.00;2.43;;;10.00;99.90;;;;;;5050292;28;20538;-38
2022/04/06 10:30:16;;;;;;;4.67;2.03;;;10.00;99.90;;;;;;5055638;28;20449;-35
2022/04/06 10:32:44;;;;;;;2.17;1.50;;;10.00;99.90;;;;;;5050274;28;20494;-39
2022/04/06 10:35:37;;;;;;;2.33;1.83;;;10.10;99.90;;;;;;5049901;28;20467;-37
2022/04/06 10:38:03;;;;;;;4.47;2.40;;;10.10;99.90;;;;;;5059938;28;20414;-34
2022/04/06 10:40:49;;;;;;;2.70;2.00;;;10.20;99.90;;;;;;5061806;28;20414;-37
2022/04/06 10:43:34;;;;;;;2.67;2.10;;;10.10;99.90;;;;;;5044050;28;20189;-38
2022/04/06 10:46:00;;;;;;;6.70;2.73;;;10.20;99.90;;;;;;5049926;28;20420;-35
2022/04/06 10:48:27;;;;;;;7.60;2.47;;;10.30;99.90;;;;;;5049991;28;20436;-38
2022/04/06 10:51:13;;;;;;;2.70;2.10;;;10.30;99.90;;;;;;5054185;28;20482;-35
2022/04/06 10:53:38;;;;;;;3.57;2.00;;;10.40;99.90;;;;;;5069711;28;20844;-36
2022/04/06 10:56:11;;;;;;;4.87;1.90;;;10.30;99.90;;;;;;5049935;28;20444;-39
2022/04/06 10:58:55;;;;;;;2.90;2.20;;;10.50;99.90;;;;;;5055017;28;20192;-38
2022/04/06 11:01:33;;;;;;;4.03;2.33;;;10.40;99.90;;;;;;5052362;28;20833;-36
2022/04/06 11:04:15;;;;;;;4.57;2.10;;;10.30;99.90;;;;;;5048359;28;20420;-39
2022/04/06 11:06:41;;;;;;;3.70;2.80;;;10.40;99.90;;;;;;5062019;28;20439;-38
2022/04/06 11:12:33;;;;;;;4.53;2.43;;;10.30;99.90;;;;;;5049468;28;20193;-37
2022/04/06 11:14:58;;;;;;;2.93;1.90;;;10.40;99.90;;;;;;5055639;28;20456;-35
2022/04/06 11:17:41;;;;;;;3.80;2.43;;;10.40;99.90;;;;;;5048908;28;20508;-40
2022/04/06 11:20:19;;;;;;;5.27;2.60;;;10.40;99.90;;;;;;5048498;28;20182;-38
2022/04/06 11:22:53;;;;;;;3.23;2.20;;;10.40;99.90;;;;;;5065457;28;20424;-36
2022/04/06 11:25:27;;;;;;;4.40;2.20;;;10.40;99.90;;;;;;5059264;28;20469;-38
2022/04/06 11:27:57;;;;;;;3.20;2.50;;;10.50;99.90;;;;;;5049073;28;21015;-39
2022/04/06 11:30:26;;;;;;;3.00;2.40;;;10.50;99.90;;;;;;5050263;28;20685;-40
2022/04/06 11:32:59;;;;;;;5.63;2.23;;;10.60;99.90;;;;;;5048929;28;20779;-36
2022/04/06 11:35:44;;;;;;;4.40;2.83;;;10.60;99.90;;;;;;5051394;28;20529;-35
2022/04/06 11:38:09;;;;;;;2.60;1.60;;;10.60;99.90;;;;;;5066147;28;20422;-34
2022/04/06 11:40:42;;;;;;;4.13;2.10;;;10.50;99.90;;;;;;5057509;28;20509;-38
2022/04/06 11:43:08;;;;;;;5.70;2.20;;;10.70;99.90;;;;;;5048873;28;20617;-39
2022/04/06 11:45:40;;;;;;;4.10;2.97;;;10.60;99.90;;;;;;5060650;28;20543;-39
2022/04/06 11:48:07;;;;;;;1.83;1.73;;;10.50;99.90;;;;;;5048614;28;20490;-37
2022/04/06 11:50:35;;;;;;;2.77;2.13;;;10.50;99.90;;;;;;5048965;28;20444;-38
2022/04/06 11:53:06;;;;;;;4.33;2.40;;;10.60;99.90;;;;;;5066832;28;20497;-37
2022/04/06 11:55:48;;;;;;;2.80;2.20;;;10.70;99.90;;;;;;5059207;28;20551;-39
2022/04/06 11:58:37;;;;;;;4.60;3.07;;;10.40;99.90;;;;;;5048489;28;20799;-36
2022/04/06 12:01:08;;;;;;;3.17;2.20;;;10.40;99.90;;;;;;5062652;28;20415;-37
2022/04/06 12:03:36;;;;;;;3.07;2.63;;;10.50;99.90;;;;;;5066424;28;20546;-35
2022/04/06 12:06:03;;;;;;;5.73;3.53;;;10.20;99.90;;;;;;5063227;28;20955;-38
2022/04/06 12:08:31;;;;;;;5.23;3.10;;;10.20;99.90;;;;;;5075852;28;20839;-36
2022/04/06 12:10:58;;;;;;;4.30;3.50;;;10.30;99.90;;;;;;5051637;28;20646;-39
2022/04/06 12:13:27;;;;;;;4.30;3.27;;;10.50;99.90;;;;;;5048357;28;20859;-37
2022/04/06 12:15:55;;;;;;;4.97;2.80;;;10.30;99.90;;;;;;5051079;28;20456;-37
2022/04/06 12:18:22;;;;;;;6.50;3.93;;;10.40;99.90;;;;;;5047865;28;21005;-38
2022/04/06 12:20:48;;;;;;;3.43;2.80;;;10.10;99.90;;;;;;5049244;28;20543;-35
2022/04/06 12:23:16;;;;;;;2.93;2.67;;;10.20;99.90;;;;;;5068045;28;20438;-40
2022/04/06 12:25:42;;;;;;;4.53;2.83;;;10.30;99.90;;;;;;5052315;28;20462;-40
2022/04/06 12:28:22;;;;;;;3.13;2.83;;;10.20;99.90;;;;;;5048081;28;20452;-37
2022/04/06 12:30:53;;;;;;;3.57;2.63;;;10.20;99.90;;;;;;5058842;28;20432;-37
2022/04/06 12:33:39;;;;;;;3.30;3.00;;;10.20;99.90;;;;;;5048600;28;20827;-37
2022/04/06 12:36:06;;;;;;;3.40;3.10;;;10.20;99.90;;;;;;5054697;28;20436;-41
2022/04/06 12:38:31;;;;;;;5.20;3.30;;;10.20;99.90;;;;;;5065113;28;20415;-38
2022/04/06 12:41:12;;;;;;;4.63;3.63;;;10.20;99.90;;;;;;5062243;28;20423;-38
2022/04/06 12:43:44;;;;;;;3.30;2.70;;;10.20;99.90;;;;;;5048136;28;20533;-39
2022/04/06 12:46:11;;;;;;;3.63;2.80;;;10.40;99.90;;;;;;5059987;28;20416;-34
2022/04/06 12:48:36;;;;;;;5.07;2.90;;;10.10;99.90;;;;;;5067870;28;20470;-40
2022/04/06 12:51:21;;;;;;;7.50;3.27;;;10.20;99.90;;;;;;5062984;28;20460;-40
2022/04/06 12:53:49;;;;;;;6.73;2.90;;;10.50;99.90;;;;;;5074611;28;20235;-37
2022/04/06 12:56:15;;;;;;;3.27;2.90;;;10.30;99.90;;;;;;5070537;28;20522;-37
2022/04/06 12:58:41;;;;;;;5.53;2.80;;;10.30;99.90;;;;;;5047553;28;20436;-40
2022/04/06 13:01:11;;;;;;;2.93;2.70;;;10.40;99.90;;;;;;5050681;28;20416;-34
2022/04/06 13:03:37;;;;;;;3.67;2.87;;;10.40;99.90;;;;;;5046124;28;20554;-38
2022/04/06 13:06:03;;;;;;;2.90;2.67;;;10.50;99.90;;;;;;5047234;28;20831;-37
2022/04/06 13:08:29;;;;;;;4.40;3.17;;;10.50;99.90;;;;;;5052079;28;20716;-40